createdAt,value
2022-08-20T00:00:05.619Z,98051.84
2022-08-20T00:02:38.292Z,98059.13
2022-08-20T00:05:04.780Z,98054.22
2022-08-20T00:07:31.423Z,98059.41
2022-08-20T00:09:57.790Z,98050.53
2022-08-20T00:12:24.141Z,98057.78
2022-08-20T00:14:50.515Z,98059.44
2022-08-20T00:17:16.932Z,98057.44
2022-08-20T00:19:43.302Z,98058.22
2022-08-20T00:22:09.649Z,98057.47
2022-08-20T00:24:36.005Z,98060.00
2022-08-20T00:27:02.449Z,98049.19
2022-08-20T00:29:28.810Z,98057.66
2022-08-20T00:31:55.171Z,98050.38
2022-08-20T00:34:21.535Z,98050.78
2022-08-20T00:36:48.042Z,98057.25
2022-08-20T00:39:14.407Z,98058.88
2022-08-20T00:41:40.742Z,98057.31
2022-08-20T00:44:11.484Z,98061.00
2022-08-20T00:46:37.883Z,98059.06
2022-08-20T00:49:05.913Z,98066.78
2022-08-20T00:51:33.869Z,98067.66
2022-08-20T00:54:05.920Z,98058.34
2022-08-20T00:56:33.837Z,98066.88
2022-08-20T00:59:00.208Z,98064.91
2022-08-20T01:01:26.585Z,98075.41
2022-08-20T01:03:56.632Z,98067.28
2022-08-20T01:06:24.786Z,98070.59
2022-08-20T01:08:51.159Z,98070.25
2022-08-20T01:11:20.304Z,98071.44
2022-08-20T01:13:46.964Z,98072.59
2022-08-20T01:16:18.998Z,98076.66
2022-08-20T01:18:45.364Z,98076.31
2022-08-20T01:21:11.979Z,98077.50
2022-08-20T01:23:38.328Z,98078.69
2022-08-20T01:26:24.557Z,98073.03
2022-08-20T01:28:52.843Z,98081.47
2022-08-20T01:31:20.266Z,98083.16
2022-08-20T01:33:47.635Z,98087.09
2022-08-20T01:36:14.244Z,98089.00
2022-08-20T01:38:40.723Z,98088.16
2022-08-20T01:41:28.179Z,98092.13
2022-08-20T01:43:57.099Z,98081.94
2022-08-20T01:46:26.680Z,98086.69
2022-08-20T01:48:53.756Z,98082.66
2022-08-20T01:51:21.301Z,98079.66
2022-08-20T01:53:48.379Z,98087.38
2022-08-20T01:56:16.479Z,98083.75
2022-08-20T01:58:43.941Z,98093.75
2022-08-20T02:01:18.738Z,98089.38
2022-08-20T02:03:45.168Z,98088.91
2022-08-20T02:06:11.509Z,98088.16
2022-08-20T02:08:37.879Z,98084.94
2022-08-20T02:11:04.231Z,98085.75
2022-08-20T02:13:30.605Z,98087.84
2022-08-20T02:15:56.986Z,98093.91
2022-08-20T02:18:23.884Z,98086.69
2022-08-20T02:20:50.459Z,98084.69
2022-08-20T02:23:16.887Z,98089.38
2022-08-20T02:25:43.828Z,98088.50
2022-08-20T02:28:10.939Z,98087.78
2022-08-20T02:30:38.499Z,98085.75
2022-08-20T02:33:05.328Z,98084.13
2022-08-20T02:35:32.282Z,98089.34
2022-08-20T02:38:00.153Z,98092.13
2022-08-20T02:40:30.691Z,98090.13
2022-08-20T02:42:57.419Z,98084.13
2022-08-20T02:45:23.778Z,98092.16
2022-08-20T02:47:52.089Z,98087.78
2022-08-20T02:50:18.790Z,98088.16
2022-08-20T02:52:51.489Z,98090.53
2022-08-20T02:55:27.013Z,98088.56
2022-08-20T02:57:55.317Z,98089.75
2022-08-20T03:00:25.481Z,98090.97
2022-08-20T03:02:51.887Z,98097.00
2022-08-20T03:05:18.266Z,98091.81
2022-08-20T03:07:45.078Z,98087.44
2022-08-20T03:10:12.434Z,98083.44
2022-08-20T03:12:38.973Z,98083.88
2022-08-20T03:15:06.284Z,98081.47
2022-08-20T03:17:32.641Z,98085.06
2022-08-20T03:19:59.008Z,98086.31
2022-08-20T03:22:25.364Z,98093.53
2022-08-20T03:24:51.775Z,98086.31
2022-08-20T03:27:21.351Z,98084.72
2022-08-20T03:29:52.561Z,98085.53
2022-08-20T03:32:18.911Z,98089.66
2022-08-20T03:34:45.277Z,98094.88
2022-08-20T03:37:11.660Z,98084.03
2022-08-20T03:39:38.296Z,98086.03
2022-08-20T03:42:04.844Z,98082.88
2022-08-20T03:44:31.209Z,98082.94
2022-08-20T03:46:57.965Z,98087.69
2022-08-20T03:49:24.680Z,98082.47
2022-08-20T03:51:58.244Z,98083.25
2022-08-20T03:54:24.968Z,98092.13
2022-08-20T03:56:56.781Z,98088.16
2022-08-20T03:59:23.170Z,98090.50
2022-08-20T04:01:49.598Z,98093.31
2022-08-20T04:04:16.015Z,98092.56
2022-08-20T04:06:42.611Z,98098.13
2022-08-20T04:09:09.543Z,98104.56
2022-08-20T04:11:37.921Z,98101.00
2022-08-20T04:14:04.772Z,98105.78
2022-08-20T04:16:33.065Z,98110.97
2022-08-20T04:19:02.231Z,98116.25
2022-08-20T04:21:29.633Z,98118.69
2022-08-20T04:23:59.697Z,98127.91
2022-08-20T04:26:26.333Z,98131.06
2022-08-20T04:28:53.001Z,98132.25
2022-08-20T04:31:24.851Z,98128.25
2022-08-20T04:33:51.961Z,98133.88
2022-08-20T04:36:18.322Z,98132.66
2022-08-20T04:38:50.184Z,98130.63
2022-08-20T04:41:22.775Z,98133.00
2022-08-20T04:43:50.216Z,98130.25
2022-08-20T04:46:16.909Z,98125.00
2022-08-20T04:48:48.771Z,98127.44
2022-08-20T04:51:16.907Z,98130.66
2022-08-20T04:53:45.141Z,98135.88
2022-08-20T04:56:20.063Z,98133.84
2022-08-20T04:58:48.711Z,98140.31
2022-08-20T05:01:15.101Z,98143.06
2022-08-20T05:03:41.565Z,98141.88
2022-08-20T05:06:09.095Z,98144.59
2022-08-20T05:08:38.428Z,98140.25
2022-08-20T05:11:33.548Z,98142.66
2022-08-20T05:13:52.873Z,98152.28
2022-08-20T05:16:19.788Z,98151.09
2022-08-20T05:18:50.538Z,98145.41
2022-08-20T05:21:19.726Z,98146.16
2022-08-20T05:23:46.100Z,98141.88
2022-08-20T05:26:13.001Z,98147.84
2022-08-20T05:28:57.690Z,98145.88
2022-08-20T05:31:24.625Z,98139.78
2022-08-20T05:33:59.102Z,98142.66
2022-08-20T05:36:25.449Z,98143.47
2022-08-20T05:38:52.374Z,98142.31
2022-08-20T05:41:27.679Z,98155.56
2022-08-20T05:43:55.821Z,98158.78
2022-08-20T05:46:22.916Z,98161.16
2022-08-20T05:48:49.550Z,98162.09
2022-08-20T05:51:15.916Z,98166.91
2022-08-20T05:53:42.284Z,98162.13
2022-08-20T05:56:11.197Z,98169.78
2022-08-20T05:58:37.616Z,98166.13
2022-08-20T06:01:04.028Z,98173.41
2022-08-20T06:03:49.162Z,98171.41
2022-08-20T06:06:20.687Z,98167.00
2022-08-20T06:09:02.116Z,98175.03
2022-08-20T06:11:28.533Z,98175.44
2022-08-20T06:13:54.894Z,98183.53
2022-08-20T06:16:21.498Z,98185.88
2022-08-20T06:18:48.278Z,98194.75
2022-08-20T06:21:15.571Z,98187.06
2022-08-20T06:23:56.451Z,98181.09
2022-08-20T06:26:29.974Z,98191.16
2022-08-20T06:28:57.434Z,98184.72
2022-08-20T06:31:24.343Z,98194.31
2022-08-20T06:33:50.716Z,98183.47
2022-08-20T06:36:18.667Z,98185.47
2022-08-20T06:38:46.179Z,98187.06
2022-08-20T06:41:12.619Z,98191.44
2022-08-20T06:43:38.985Z,98186.59
2022-08-20T06:46:06.491Z,98183.75
2022-08-20T06:48:32.844Z,98172.31
2022-08-20T06:50:59.214Z,98172.56
2022-08-20T06:53:25.847Z,98168.88
2022-08-20T06:55:52.989Z,98174.34
2022-08-20T06:58:30.527Z,98175.91
2022-08-20T07:01:10.278Z,98175.13
2022-08-20T07:03:38.230Z,98183.88
2022-08-20T07:06:04.844Z,98186.34
2022-08-20T07:08:31.190Z,98183.16
2022-08-20T07:10:57.566Z,98191.72
2022-08-20T07:13:24.379Z,98192.00
2022-08-20T07:15:53.106Z,98193.22
2022-08-20T07:18:27.853Z,98197.34
2022-08-20T07:20:56.802Z,98198.97
2022-08-20T07:23:23.666Z,98199.25
2022-08-20T07:25:50.096Z,98198.50
2022-08-20T07:28:17.390Z,98193.72
2022-08-20T07:31:12.320Z,98189.16
2022-08-20T07:33:41.085Z,98190.28
2022-08-20T07:36:07.607Z,98194.72
2022-08-20T07:38:34.513Z,98196.75
2022-08-20T07:41:01.633Z,98193.81
2022-08-20T07:43:28.324Z,98196.22
2022-08-20T07:45:56.339Z,98194.69
2022-08-20T07:48:27.899Z,98192.97
2022-08-20T07:50:58.903Z,98210.50
2022-08-20T07:53:25.406Z,98198.81
2022-08-20T07:55:59.297Z,98207.94
2022-08-20T07:58:27.638Z,98212.28
2022-08-20T08:00:59.723Z,98210.00
2022-08-20T08:03:39.845Z,98208.81
2022-08-20T08:06:13.289Z,98218.97
2022-08-20T08:08:40.858Z,98216.06
2022-08-20T08:11:07.228Z,98224.16
2022-08-20T08:13:35.781Z,98225.53
2022-08-20T08:16:02.913Z,98226.25
2022-08-20T08:18:31.986Z,98233.97
2022-08-20T08:20:58.505Z,98226.31
2022-08-20T08:23:31.683Z,98221.69
2022-08-20T08:25:59.267Z,98230.94
2022-08-20T08:28:28.274Z,98227.19
2022-08-20T08:30:54.757Z,98238.50
2022-08-20T08:33:27.620Z,98232.44
2022-08-20T08:35:54.725Z,98231.34
2022-08-20T08:38:23.094Z,98243.72
2022-08-20T08:40:51.482Z,98242.84
2022-08-20T08:43:27.160Z,98241.25
2022-08-20T08:46:00.634Z,98241.25
2022-08-20T08:48:37.209Z,98239.59
2022-08-20T08:51:06.271Z,98244.88
2022-08-20T08:53:34.805Z,98251.50
2022-08-20T08:56:01.188Z,98253.09
2022-08-20T08:58:28.024Z,98259.38
2022-08-20T09:00:56.315Z,98259.00
2022-08-20T09:03:29.378Z,98265.59
2022-08-20T09:05:58.519Z,98259.38
2022-08-20T09:08:25.992Z,98267.34
2022-08-20T09:10:52.415Z,98263.16
2022-08-20T09:13:19.218Z,98264.69
2022-08-20T09:15:46.279Z,98265.03
2022-08-20T09:18:12.626Z,98272.66
2022-08-20T09:20:38.995Z,98269.03
2022-08-20T09:23:05.676Z,98267.13
2022-08-20T09:25:32.274Z,98268.94
2022-08-20T09:27:58.621Z,98270.00
2022-08-20T09:30:26.308Z,98267.69
2022-08-20T09:32:52.719Z,98266.19
2022-08-20T09:35:19.175Z,98267.56
2022-08-20T09:37:46.891Z,98272.34
2022-08-20T09:40:21.036Z,98267.63
2022-08-20T09:42:47.786Z,98263.38
2022-08-20T09:45:14.245Z,98259.09
2022-08-20T09:47:43.787Z,98256.78
2022-08-20T09:50:21.238Z,98260.25
2022-08-20T09:52:51.134Z,98271.06
2022-08-20T09:55:21.962Z,98262.50
2022-08-20T09:57:48.322Z,98272.22
2022-08-20T10:00:14.710Z,98271.44
2022-08-20T10:02:41.249Z,98271.63
2022-08-20T10:05:07.827Z,98270.16
2022-08-20T10:07:38.686Z,98270.63
2022-08-20T10:10:05.789Z,98270.25
2022-08-20T10:12:32.139Z,98268.28
2022-08-20T10:14:58.518Z,98270.63
2022-08-20T10:17:24.970Z,98261.38
2022-08-20T10:19:51.351Z,98266.13
2022-08-20T10:22:17.719Z,98269.38
2022-08-20T10:24:44.089Z,98262.44
2022-08-20T10:27:10.437Z,98260.06
2022-08-20T10:29:36.803Z,98263.13
2022-08-20T10:32:12.188Z,98265.69
2022-08-20T10:34:42.232Z,98263.34
2022-08-20T10:37:08.775Z,98272.66
2022-08-20T10:39:35.263Z,98265.22
2022-08-20T10:42:01.954Z,98259.38
2022-08-20T10:44:28.395Z,98258.56
2022-08-20T10:46:56.170Z,98268.88
2022-08-20T10:49:23.626Z,98249.81
2022-08-20T10:51:49.996Z,98250.09
2022-08-20T10:54:16.413Z,98256.22
2022-08-20T10:56:43.102Z,98253.59
2022-08-20T10:59:09.469Z,98258.75
2022-08-20T11:01:36.917Z,98250.44
2022-08-20T11:04:03.672Z,98264.72
2022-08-20T11:06:30.020Z,98268.53
2022-08-20T11:08:57.032Z,98261.41
2022-08-20T11:11:23.705Z,98260.25
2022-08-20T11:13:50.089Z,98273.69
2022-08-20T11:16:16.462Z,98269.84
2022-08-20T11:18:47.669Z,98272.00
2022-08-20T11:21:14.310Z,98270.72
2022-08-20T11:23:40.711Z,98275.81
2022-08-20T11:26:07.118Z,98276.38
2022-08-20T11:28:33.596Z,98277.03
2022-08-20T11:31:00.591Z,98282.78
2022-08-20T11:33:27.005Z,98279.66
2022-08-20T11:35:53.369Z,98285.16
2022-08-20T11:38:19.719Z,98284.38
2022-08-20T11:40:47.161Z,98279.88
2022-08-20T11:43:15.610Z,98278.09
2022-08-20T11:45:43.718Z,98276.97
2022-08-20T11:48:10.083Z,98282.50
2022-08-20T11:50:36.484Z,98284.13
2022-08-20T11:53:02.915Z,98279.06
2022-08-20T11:55:31.030Z,98288.22
2022-08-20T11:57:59.854Z,98287.28
2022-08-20T12:00:32.609Z,98291.69
2022-08-20T12:03:00.106Z,98291.59
2022-08-20T12:05:27.419Z,98295.88
2022-08-20T12:07:53.820Z,98294.47
2022-08-20T12:10:20.195Z,98287.72
2022-08-20T12:12:46.555Z,98292.47
2022-08-20T12:15:13.269Z,98301.75
2022-08-20T12:17:39.824Z,98304.53
2022-08-20T12:20:09.927Z,98315.38
2022-08-20T12:22:36.287Z,98309.41
2022-08-20T12:25:02.907Z,98305.03
2022-08-20T12:27:35.665Z,98296.69
2022-08-20T12:30:02.715Z,98303.16
2022-08-20T12:32:29.450Z,98305.84
2022-08-20T12:34:55.901Z,98296.97
2022-08-20T12:37:23.265Z,98308.22
2022-08-20T12:39:50.901Z,98314.22
2022-08-20T12:42:17.479Z,98308.84
2022-08-20T12:44:43.926Z,98309.25
2022-08-20T12:47:11.424Z,98305.97
2022-08-20T12:49:37.813Z,98301.69
2022-08-20T12:52:04.396Z,98301.50
2022-08-20T12:54:30.773Z,98304.28
2022-08-20T12:56:57.122Z,98296.03
2022-08-20T12:59:26.079Z,98299.69
2022-08-20T13:01:52.846Z,98297.50
2022-08-20T13:04:19.267Z,98306.69
2022-08-20T13:06:45.618Z,98313.63
2022-08-20T13:09:12.921Z,98309.44
2022-08-20T13:11:39.265Z,98298.66
2022-08-20T13:14:05.910Z,98290.53
2022-08-20T13:16:32.334Z,98286.25
2022-08-20T13:18:59.048Z,98286.22
2022-08-20T13:21:26.331Z,98292.94
2022-08-20T13:23:52.759Z,98287.81
2022-08-20T13:26:19.127Z,98295.88
2022-08-20T13:28:45.479Z,98285.53
2022-08-20T13:31:11.835Z,98284.50
2022-08-20T13:33:38.191Z,98284.38
2022-08-20T13:36:04.584Z,98284.19
2022-08-20T13:38:31.339Z,98288.00
2022-08-20T13:40:58.018Z,98284.88
2022-08-20T13:43:24.431Z,98275.97
2022-08-20T13:45:50.791Z,98273.41
2022-08-20T13:48:17.207Z,98286.88
2022-08-20T13:50:46.989Z,98285.69
2022-08-20T13:53:13.788Z,98286.31
2022-08-20T13:55:40.151Z,98283.75
2022-08-20T13:58:06.576Z,98276.38
2022-08-20T14:00:33.155Z,98276.06
2022-08-20T14:03:00.081Z,98275.25
2022-08-20T14:05:26.462Z,98277.97
2022-08-20T14:07:52.871Z,98276.31
2022-08-20T14:10:21.874Z,98268.97
2022-08-20T14:12:48.405Z,98279.66
2022-08-20T14:15:15.016Z,98285.53
2022-08-20T14:17:42.592Z,98279.13
2022-08-20T14:20:19.558Z,98283.56
2022-08-20T14:22:45.975Z,98278.72
2022-08-20T14:25:17.113Z,98287.38
2022-08-20T14:27:43.467Z,98281.31
2022-08-20T14:30:11.134Z,98276.66
2022-08-20T14:32:37.526Z,98278.16
2022-08-20T14:35:04.209Z,98277.25
2022-08-20T14:37:38.054Z,98283.31
2022-08-20T14:40:05.196Z,98287.84
2022-08-20T14:42:31.740Z,98278.25
2022-08-20T14:44:58.986Z,98272.44
2022-08-20T14:47:26.325Z,98275.16
2022-08-20T14:49:53.141Z,98286.78
2022-08-20T14:52:22.016Z,98280.97
2022-08-20T14:54:48.491Z,98280.75
2022-08-20T14:57:15.093Z,98281.09
2022-08-20T14:59:41.681Z,98285.22
2022-08-20T15:02:08.584Z,98277.19
2022-08-20T15:04:35.028Z,98284.09
2022-08-20T15:07:11.152Z,98281.81
2022-08-20T15:09:39.695Z,98275.66
2022-08-20T15:12:06.106Z,98288.19
2022-08-20T15:14:32.460Z,98283.69
2022-08-20T15:16:59.965Z,98278.44
2022-08-20T15:19:26.328Z,98272.59
2022-08-20T15:21:52.724Z,98280.09
2022-08-20T15:24:19.704Z,98276.41
2022-08-20T15:26:46.208Z,98273.69
2022-08-20T15:29:12.631Z,98273.94
2022-08-20T15:31:49.456Z,98275.78
2022-08-20T15:34:17.712Z,98285.47
2022-08-20T15:36:44.654Z,98275.34
2022-08-20T15:39:11.008Z,98274.78
2022-08-20T15:41:37.373Z,98280.00
2022-08-20T15:44:03.825Z,98275.41
2022-08-20T15:46:31.611Z,98276.16
2022-08-20T15:49:02.478Z,98276.78
2022-08-20T15:51:30.026Z,98275.81
2022-08-20T15:54:04.030Z,98284.41
2022-08-20T15:56:36.473Z,98287.88
2022-08-20T15:59:07.952Z,98288.72
2022-08-20T16:01:53.291Z,98291.06
2022-08-20T16:04:25.810Z,98295.00
2022-08-20T16:06:52.417Z,98287.13
2022-08-20T16:09:25.463Z,98294.06
2022-08-20T16:11:55.321Z,98292.06
2022-08-20T16:14:22.877Z,98298.84
2022-08-20T16:16:50.234Z,98299.22
2022-08-20T16:19:26.172Z,98299.03
2022-08-20T16:21:52.551Z,98297.31
2022-08-20T16:24:19.869Z,98308.69
2022-08-20T16:26:52.074Z,98301.47
2022-08-20T16:29:21.404Z,98311.19
2022-08-20T16:32:00.455Z,98311.50
2022-08-20T16:34:43.265Z,98311.16
2022-08-20T16:37:10.210Z,98317.75
2022-08-20T16:39:44.772Z,98317.56
2022-08-20T16:42:13.962Z,98320.47
2022-08-20T16:44:45.191Z,98314.00
2022-08-20T16:47:29.321Z,98324.13
2022-08-20T16:50:07.062Z,98325.56
2022-08-20T16:52:33.543Z,98315.19
2022-08-20T16:54:59.911Z,98315.53
2022-08-20T16:57:26.567Z,98310.38
2022-08-20T16:59:58.906Z,98308.78
2022-08-20T17:02:25.399Z,98309.22
2022-08-20T17:04:59.300Z,98313.19
2022-08-20T17:07:43.260Z,98316.88
2022-08-20T17:10:12.658Z,98318.03
2022-08-20T17:12:39.033Z,98320.97
2022-08-20T17:15:05.606Z,98316.06
2022-08-20T17:17:32.854Z,98322.06
2022-08-20T17:20:00.502Z,98328.47
2022-08-20T17:22:27.763Z,98327.28
2022-08-20T17:24:54.227Z,98329.69
2022-08-20T17:27:32.756Z,98332.88
2022-08-20T17:30:10.523Z,98334.84
2022-08-20T17:32:59.441Z,98340.47
2022-08-20T17:35:30.341Z,98336.06
2022-08-20T17:37:56.830Z,98336.94
2022-08-20T17:40:27.924Z,98341.38
2022-08-20T17:42:58.292Z,98337.72
2022-08-20T17:45:33.085Z,98337.81
2022-08-20T17:47:59.929Z,98338.53
2022-08-20T17:50:30.974Z,98343.38
2022-08-20T17:53:23.839Z,98348.19
2022-08-20T17:55:51.348Z,98350.91
2022-08-20T17:58:18.592Z,98346.56
2022-08-20T18:00:45.143Z,98352.16
2022-08-20T18:03:21.750Z,98345.72
2022-08-20T18:05:56.855Z,98348.88
2022-08-20T18:08:44.081Z,98345.66
2022-08-20T18:11:29.325Z,98346.88
2022-08-20T18:14:00.521Z,98352.91
2022-08-20T18:16:31.290Z,98348.97
2022-08-20T18:18:59.115Z,98347.81
2022-08-20T18:21:31.644Z,98341.06
2022-08-20T18:24:00.374Z,98350.41
2022-08-20T18:26:28.554Z,98348.84
2022-08-20T18:28:56.787Z,98346.47
2022-08-20T18:31:34.668Z,98354.88
2022-08-20T18:34:14.863Z,98357.69
2022-08-20T18:36:41.532Z,98351.75
2022-08-20T18:39:09.460Z,98356.97
2022-08-20T18:41:38.323Z,98359.78
2022-08-20T18:44:07.681Z,98364.59
2022-08-20T18:46:35.850Z,98371.78
2022-08-20T18:49:02.945Z,98374.97
2022-08-20T18:51:35.234Z,98368.53
2022-08-20T18:54:01.666Z,98370.16
2022-08-20T18:56:36.091Z,98366.91
2022-08-20T18:59:15.801Z,98373.75
2022-08-20T19:01:42.779Z,98370.91
2022-08-20T19:04:35.772Z,98375.31
2022-08-20T19:07:02.761Z,98376.84
2022-08-20T19:09:32.155Z,98374.06
2022-08-20T19:12:10.776Z,98378.03
2022-08-20T19:14:43.392Z,98372.84
2022-08-20T19:17:19.784Z,98376.06
2022-08-20T19:19:46.207Z,98373.22
2022-08-20T19:22:20.492Z,98369.63
2022-08-20T19:24:48.027Z,98368.78
2022-08-20T19:27:16.090Z,98367.59
2022-08-20T19:29:49.344Z,98372.78
2022-08-20T19:32:21.945Z,98364.78
2022-08-20T19:34:58.933Z,98369.16
2022-08-20T19:37:39.875Z,98366.34
2022-08-20T19:40:28.150Z,98365.16
2022-08-20T19:42:55.139Z,98368.34
2022-08-20T19:45:29.879Z,98378.31
2022-08-20T19:48:04.447Z,98378.69
2022-08-20T19:50:37.425Z,98382.72
2022-08-20T19:53:03.817Z,98386.75
2022-08-20T19:55:31.218Z,98389.97
2022-08-20T19:57:58.567Z,98384.31
2022-08-20T20:00:25.531Z,98384.75
2022-08-20T20:02:51.936Z,98384.72
2022-08-20T20:05:18.336Z,98377.56
2022-08-20T20:07:46.025Z,98373.91
2022-08-20T20:10:24.719Z,98375.47
2022-08-20T20:12:51.158Z,98383.50
2022-08-20T20:15:17.736Z,98381.91
2022-08-20T20:17:44.207Z,98385.13
2022-08-20T20:20:19.938Z,98382.75
2022-08-20T20:22:54.545Z,98382.00
2022-08-20T20:25:23.019Z,98389.97
2022-08-20T20:27:50.643Z,98387.59
2022-08-20T20:30:20.844Z,98394.00
2022-08-20T20:32:47.827Z,98387.56
2022-08-20T20:35:22.612Z,98384.81
2022-08-20T20:37:55.660Z,98381.94
2022-08-20T20:40:26.202Z,98377.88
2022-08-20T20:43:00.977Z,98376.69
2022-08-20T20:45:30.530Z,98369.78
2022-08-20T20:47:56.920Z,98371.38
2022-08-20T20:50:28.917Z,98372.94
2022-08-20T20:52:55.684Z,98369.72
2022-08-20T20:55:23.462Z,98368.94
2022-08-20T20:57:50.184Z,98373.78
2022-08-20T21:00:17.463Z,98370.56
2022-08-20T21:02:44.372Z,98368.94
2022-08-20T21:05:11.687Z,98381.97
2022-08-20T21:07:45.165Z,98379.94
2022-08-20T21:10:16.766Z,98377.16
2022-08-20T21:12:43.152Z,98384.38
2022-08-20T21:15:10.349Z,98384.38
2022-08-20T21:17:36.744Z,98388.84
2022-08-20T21:20:03.740Z,98396.06
2022-08-20T21:22:30.168Z,98384.78
2022-08-20T21:24:56.547Z,98393.16
2022-08-20T21:27:23.552Z,98388.38
2022-08-20T21:29:49.919Z,98387.97
2022-08-20T21:32:17.690Z,98388.75
2022-08-20T21:34:44.503Z,98383.94
2022-08-20T21:37:11.078Z,98377.56
2022-08-20T21:39:37.484Z,98379.56
2022-08-20T21:42:04.700Z,98381.50
2022-08-20T21:44:51.146Z,98383.88
2022-08-20T21:47:17.679Z,98385.50
2022-08-20T21:49:44.050Z,98378.31
2022-08-20T21:52:10.453Z,98393.19
2022-08-20T21:54:36.852Z,98392.97
2022-08-20T21:57:07.332Z,98384.47
2022-08-20T21:59:34.280Z,98400.00
2022-08-20T22:02:01.263Z,98395.53
2022-08-20T22:04:27.744Z,98391.53
2022-08-20T22:06:54.113Z,98394.47
2022-08-20T22:09:20.508Z,98396.41
2022-08-20T22:11:50.884Z,98395.66
2022-08-20T22:14:20.326Z,98383.75
2022-08-20T22:16:46.727Z,98385.31
2022-08-20T22:19:16.088Z,98386.06
2022-08-20T22:21:42.853Z,98383.34
2022-08-20T22:24:09.275Z,98383.78
2022-08-20T22:26:36.247Z,98388.47
2022-08-20T22:29:02.622Z,98387.31
2022-08-20T22:31:29.973Z,98381.38
2022-08-20T22:33:56.657Z,98379.22
2022-08-20T22:36:23.412Z,98374.06
2022-08-20T22:38:54.446Z,98381.22
2022-08-20T22:41:21.315Z,98378.53
2022-08-20T22:43:56.557Z,98382.03
2022-08-20T22:46:24.205Z,98381.22
2022-08-20T22:48:52.878Z,98380.03
2022-08-20T22:51:38.773Z,98384.09
2022-08-20T22:54:05.483Z,98377.22
2022-08-20T22:56:31.907Z,98372.78
2022-08-20T22:58:59.190Z,98378.09
2022-08-20T23:01:26.080Z,98383.75
2022-08-20T23:03:52.598Z,98379.25
2022-08-20T23:06:18.954Z,98372.88
2022-08-20T23:08:45.635Z,98371.59
2022-08-20T23:11:12.420Z,98366.81
2022-08-20T23:13:38.770Z,98360.47
2022-08-20T23:16:05.130Z,98362.41
2022-08-20T23:18:31.491Z,98361.56
2022-08-20T23:20:58.946Z,98361.19
2022-08-20T23:23:25.499Z,98355.94
2022-08-20T23:25:51.846Z,98356.34
2022-08-20T23:28:19.021Z,98358.38
2022-08-20T23:30:45.997Z,98351.94
2022-08-20T23:33:12.381Z,98350.72
2022-08-20T23:35:38.790Z,98351.78
2022-08-20T23:38:05.439Z,98347.91
2022-08-20T23:40:31.811Z,98359.91
2022-08-20T23:42:58.354Z,98356.66
2022-08-20T23:45:24.831Z,98353.84
2022-08-20T23:47:51.486Z,98362.13
2022-08-20T23:50:20.040Z,98360.94
2022-08-20T23:52:46.433Z,98360.16
2022-08-20T23:55:12.865Z,98357.38
2022-08-20T23:57:39.664Z,98353.66
